PLM7322 LIPZ-EGBB
Flight info
| Callsign | PLM7322 |
|---|---|
| Flight time | N/A |
| Altitude | 40000 |
| Route | ROKIB DCT UNTAD DCT RESIA DCT ELMUR DCT RIPUS DCT DITON DCT HOC DCT LUL DCT RLP DCT ROTSI DCT KOTUN DCT NINAL DCT ABNUR DCT DIMAL DCT ALESO T420 HEMEL |
| Aircraft | A333/H-SDE3GHIJ2J3J5M1RVWXY/LB2D1 |
Departure
| Time | N/A |
|---|---|
| Airport | Venice Marco Polo Airport (LIPZ) |
Arrival
| Time | 2026-04-28 19:37 |
|---|---|
| Airport | Birmingham Airport (EGBB) |
| Time | Latitude | Longitude | Altitude | Speed | Heading |
|---|---|---|---|---|---|
| 2026-04-28 19:30 | 52.33657 | -1.52441 | 5201 ft | 272 kts | 278° |
| 2026-04-28 19:30 | 52.33951 | -1.55353 | 5027 ft | 253 kts | 284° |
| 2026-04-28 19:30 | 52.34298 | -1.58086 | 4877 ft | 237 kts | 285° |
| 2026-04-28 19:31 | 52.34628 | -1.60659 | 4639 ft | 225 kts | 285° |
| 2026-04-28 19:31 | 52.35247 | -1.62894 | 4187 ft | 216 kts | 311° |
| 2026-04-28 19:31 | 52.36210 | -1.64663 | 3948 ft | 198 kts | 330° |
| 2026-04-28 19:31 | 52.37380 | -1.65320 | 3790 ft | 164 kts | 11° |
| 2026-04-28 19:32 | 52.38296 | -1.64634 | 3620 ft | 137 kts | 55° |
| 2026-04-28 19:32 | 52.38488 | -1.63222 | 3401 ft | 132 kts | 99° |
| 2026-04-28 19:32 | 52.37876 | -1.62036 | 3121 ft | 147 kts | 137° |
| 2026-04-28 19:32 | 52.36919 | -1.61326 | 3032 ft | 154 kts | 148° |
| 2026-04-28 19:33 | 52.35892 | -1.60770 | 3017 ft | 159 kts | 158° |
| 2026-04-28 19:33 | 52.35154 | -1.60703 | 3008 ft | 162 kts | 177° |
| 2026-04-28 19:33 | 52.34135 | -1.61489 | 3009 ft | 169 kts | 224° |
| 2026-04-28 19:33 | 52.33906 | -1.63824 | 3019 ft | 158 kts | 306° |
| 2026-04-28 19:34 | 52.34360 | -1.64686 | 3036 ft | 146 kts | 334° |
| 2026-04-28 19:34 | 52.35221 | -1.65522 | 2899 ft | 144 kts | 344° |
| 2026-04-28 19:34 | 52.36122 | -1.66265 | 2570 ft | 144 kts | 344° |
| 2026-04-28 19:34 | 52.36996 | -1.67008 | 2306 ft | 137 kts | 343° |
| 2026-04-28 19:35 | 52.37819 | -1.67626 | 2051 ft | 123 kts | 358° |
| 2026-04-28 19:35 | 52.38640 | -1.67793 | 1760 ft | 117 kts | 7° |
| 2026-04-28 19:35 | 52.39428 | -1.67907 | 1517 ft | 115 kts | 352° |
| 2026-04-28 19:35 | 52.40127 | -1.68919 | 1169 ft | 162 kts | 317° |
| 2026-04-28 19:36 | 52.40966 | -1.70190 | 1045 ft | 162 kts | 330° |
| 2026-04-28 19:36 | 52.41903 | -1.71138 | 889 ft | 153 kts | 338° |
| 2026-04-28 19:36 | 52.42814 | -1.71985 | 697 ft | 147 kts | 332° |
| 2026-04-28 19:36 | 52.43634 | -1.72869 | 586 ft | 136 kts | 330° |
| 2026-04-28 19:37 | 52.44402 | -1.73718 | 382 ft | 130 kts | 332° |
| 2026-04-28 19:37 | 52.44884 | -1.74242 | 329 ft | 120 kts | 329° |
| 2026-04-28 19:37 | 52.45660 | -1.75108 | 323 ft | 60 kts | 325° |
| 2026-04-28 19:37 | 52.45898 | -1.75374 | 320 ft | 32 kts | 326° |
| 2026-04-28 19:38 | 52.46089 | -1.75575 | 313 ft | 15 kts | 334° |
| 2026-04-28 19:38 | 52.46185 | -1.75514 | 315 ft | 20 kts | 51° |
| 2026-04-28 19:38 | 52.46214 | -1.75374 | 309 ft | 5 kts | 121° |
| 2026-04-28 19:38 | 52.46177 | -1.75337 | 311 ft | 12 kts | 149° |
| 2026-04-28 19:39 | 52.46069 | -1.75232 | 311 ft | 24 kts | 149° |
| 2026-04-28 19:39 | 52.45903 | -1.75050 | 314 ft | 33 kts | 148° |
| 2026-04-28 19:39 | 52.45716 | -1.74843 | 316 ft | 33 kts | 145° |
| 2026-04-28 19:39 | 52.45548 | -1.74656 | 324 ft | 28 kts | 141° |
| 2026-04-28 19:40 | 52.45420 | -1.74378 | 323 ft | 34 kts | 117° |
| 2026-04-28 19:40 | 52.45321 | -1.74070 | 323 ft | 18 kts | 115° |
| 2026-04-28 19:40 | 52.45324 | -1.73949 | 325 ft | 3 kts | 61° |
| 2026-04-28 19:40 | 52.45320 | -1.73881 | 323 ft | 8 kts | 129° |
| 2026-04-28 19:41 | 52.45276 | -1.73825 | 324 ft | 8 kts | 145° |
| 2026-04-28 19:41 | 52.45272 | -1.73821 | 324 ft | 0 kts | 145° |